Crane, Washington
Current Conditions -  °F | °C
As of 3:53 AM on Thursday 29 Jan 2015 (Local Time) from KCLM Reporting Station
Overcast Overcast  
Wind Chill:   Ceiling: 600
Heat Index:   Visibility: 10mi
Dew Point:   Wind: 5mph
Humidity: 89%   Direction: 140°SE
Pressure: 30.38"   Gusts: NA
Location:  48.1359°N, 123.734°W
Report Text: KCLM 291153Z AUTO 14004KT 10SM OVC006 05/03 A3038 RMK AO2 SLP290 T00500033 10050 20017 50000 $
Loading
Personal Weather Stations






























Interactive Weather Map New forecast layout! Learn more

10-Day Weather Forecast

Advertisements
Track Severe Weather on mobile